sensor_id;sensor_type;location;lat;lon;timestamp;pressure;altitude;pressure_sealevel;temperature;humidity
33422;BME280;19763;55.798;37.782;2023-08-07T00:00:41;37811.97;;;-145.63;44.33
33422;BME280;19763;55.798;37.782;2023-08-07T00:03:07;37864.75;;;-145.63;44.54
33422;BME280;19763;55.798;37.782;2023-08-07T00:05:33;37878.44;;;-145.63;44.41
33422;BME280;19763;55.798;37.782;2023-08-07T00:07:58;37851.06;;;-145.63;44.71
33422;BME280;19763;55.798;37.782;2023-08-07T00:10:24;37894.06;;;-145.63;45.01
33422;BME280;19763;55.798;37.782;2023-08-07T00:12:50;37911.66;;;-145.63;44.90
33422;BME280;19763;55.798;37.782;2023-08-07T00:15:16;37907.75;;;-145.63;44.96
33422;BME280;19763;55.798;37.782;2023-08-07T00:17:41;37810.00;;;-145.63;45.07
33422;BME280;19763;55.798;37.782;2023-08-07T00:20:07;37917.53;;;-145.63;45.11
33422;BME280;19763;55.798;37.782;2023-08-07T00:22:33;37903.84;;;-145.63;45.06
33422;BME280;19763;55.798;37.782;2023-08-07T00:24:59;37972.28;;;-145.63;45.60
33422;BME280;19763;55.798;37.782;2023-08-07T00:27:25;37937.09;;;-145.63;45.26
33422;BME280;19763;55.798;37.782;2023-08-07T00:29:51;37896.03;;;-145.63;45.38
33422;BME280;19763;55.798;37.782;2023-08-07T00:32:17;37937.09;;;-145.63;45.34
33422;BME280;19763;55.798;37.782;2023-08-07T00:34:42;37921.44;;;-145.63;45.11
33422;BME280;19763;55.798;37.782;2023-08-07T00:37:08;37921.44;;;-145.63;45.13
33422;BME280;19763;55.798;37.782;2023-08-07T00:39:34;37890.16;;;-145.63;45.09
33422;BME280;19763;55.798;37.782;2023-08-07T00:41:59;37874.53;;;-145.63;45.02
33422;BME280;19763;55.798;37.782;2023-08-07T00:44:25;37888.22;;;-145.63;45.09
33422;BME280;19763;55.798;37.782;2023-08-07T00:46:51;37905.81;;;-145.63;45.00
33422;BME280;19763;55.798;37.782;2023-08-07T00:49:18;37944.91;;;-145.63;45.42
33422;BME280;19763;55.798;37.782;2023-08-07T00:51:46;37941.00;;;-145.63;45.20
33422;BME280;19763;55.798;37.782;2023-08-07T00:54:14;37915.56;;;-145.63;44.96
33422;BME280;19763;55.798;37.782;2023-08-07T00:56:42;37929.25;;;-145.63;45.24
33422;BME280;19763;55.798;37.782;2023-08-07T00:59:09;37964.44;;;-145.63;45.42
33422;BME280;19763;55.798;37.782;2023-08-07T01:01:35;37954.69;;;-145.63;45.46
33422;BME280;19763;55.798;37.782;2023-08-07T01:04:02;37960.53;;;-145.63;45.51
33422;BME280;19763;55.798;37.782;2023-08-07T01:06:27;37984.00;;;-145.63;45.57
33422;BME280;19763;55.798;37.782;2023-08-07T01:08:53;37964.44;;;-145.63;45.66
33422;BME280;19763;55.798;37.782;2023-08-07T01:11:36;37978.13;;;-145.63;45.45
33422;BME280;19763;55.798;37.782;2023-08-07T01:14:13;38017.25;;;-145.63;45.79
33422;BME280;19763;55.798;37.782;2023-08-07T01:17:00;37960.53;;;-145.63;45.78
33422;BME280;19763;55.798;37.782;2023-08-07T01:19:28;37978.13;;;-145.63;45.56
33422;BME280;19763;55.798;37.782;2023-08-07T01:22:24;37972.28;;;-145.63;45.51
33422;BME280;19763;55.798;37.782;2023-08-07T01:24:50;37637.97;;;-145.63;46.20
33422;BME280;19763;55.798;37.782;2023-08-07T01:35:12;37999.66;;;-145.63;45.74
33422;BME280;19763;55.798;37.782;2023-08-07T01:37:41;38054.38;;;-145.63;46.21
33422;BME280;19763;55.798;37.782;2023-08-07T01:40:08;38040.69;;;-145.63;46.11
33422;BME280;19763;55.798;37.782;2023-08-07T01:42:36;38034.84;;;-145.63;46.06
33422;BME280;19763;55.798;37.782;2023-08-07T01:45:02;38077.84;;;-145.63;46.08
33422;BME280;19763;55.798;37.782;2023-08-07T01:47:32;38062.22;;;-145.63;46.27
33422;BME280;19763;55.798;37.782;2023-08-07T01:49:58;38068.06;;;-145.63;46.35
33422;BME280;19763;55.798;37.782;2023-08-07T01:52:23;38030.94;;;-145.63;46.23
33422;BME280;19763;55.798;37.782;2023-08-07T01:54:49;38081.75;;;-145.63;46.77
33422;BME280;19763;55.798;37.782;2023-08-07T01:57:14;38128.69;;;-145.63;46.62
33422;BME280;19763;55.798;37.782;2023-08-07T01:59:40;38089.56;;;-145.63;46.71
33422;BME280;19763;55.798;37.782;2023-08-07T02:02:06;38124.78;;;-145.63;46.88
33422;BME280;19763;55.798;37.782;2023-08-07T02:04:31;38071.97;;;-145.63;46.64
33422;BME280;19763;55.798;37.782;2023-08-07T02:06:57;38075.91;;;-145.63;47.13
33422;BME280;19763;55.798;37.782;2023-08-07T02:09:23;38097.41;;;-145.63;46.75
33422;BME280;19763;55.798;37.782;2023-08-07T02:11:49;38105.22;;;-145.63;47.08
33422;BME280;19763;55.798;37.782;2023-08-07T02:14:14;38093.50;;;-145.63;46.90
33422;BME280;19763;55.798;37.782;2023-08-07T02:16:40;38132.59;;;-145.63;47.64
33422;BME280;19763;55.798;37.782;2023-08-07T02:19:06;38154.09;;;-145.63;47.44
33422;BME280;19763;55.798;37.782;2023-08-07T02:21:32;38128.69;;;-145.63;47.06
33422;BME280;19763;55.798;37.782;2023-08-07T02:23:57;38173.66;;;-145.63;47.52
33422;BME280;19763;55.798;37.782;2023-08-07T02:26:23;38093.50;;;-145.63;47.43
33422;BME280;19763;55.798;37.782;2023-08-07T02:28:49;38091.53;;;-145.63;46.82
33422;BME280;19763;55.798;37.782;2023-08-07T02:31:15;38115.00;;;-145.63;46.89
33422;BME280;19763;55.798;37.782;2023-08-07T02:33:40;38116.94;;;-145.63;47.25
33422;BME280;19763;55.798;37.782;2023-08-07T02:36:07;38148.22;;;-145.63;47.29
33422;BME280;19763;55.798;37.782;2023-08-07T02:38:33;38140.41;;;-145.63;47.24
33422;BME280;19763;55.798;37.782;2023-08-07T02:40:58;38126.72;;;-145.63;47.06
33422;BME280;19763;55.798;37.782;2023-08-07T02:43:24;38070.03;;;-145.63;46.68
33422;BME280;19763;55.798;37.782;2023-08-07T02:45:51;38093.50;;;-145.63;46.57
33422;BME280;19763;55.798;37.782;2023-08-07T02:48:17;38115.00;;;-145.63;46.69
33422;BME280;19763;55.798;37.782;2023-08-07T02:50:43;38118.91;;;-145.63;46.71
33422;BME280;19763;55.798;37.782;2023-08-07T02:53:09;38152.16;;;-145.63;46.99
33422;BME280;19763;55.798;37.782;2023-08-07T02:55:35;38128.69;;;-145.63;46.82
33422;BME280;19763;55.798;37.782;2023-08-07T02:58:00;38081.75;;;-145.63;46.46
33422;BME280;19763;55.798;37.782;2023-08-07T03:00:26;38054.38;;;-145.63;46.33
33422;BME280;19763;55.798;37.782;2023-08-07T03:02:52;38038.75;;;-145.63;46.00
33422;BME280;19763;55.798;37.782;2023-08-07T03:05:17;38089.56;;;-145.63;46.07
33422;BME280;19763;55.798;37.782;2023-08-07T03:07:43;38032.88;;;-145.63;46.16
33422;BME280;19763;55.798;37.782;2023-08-07T03:10:09;38034.84;;;-145.63;45.90
33422;BME280;19763;55.798;37.782;2023-08-07T03:12:34;38042.66;;;-145.63;45.87
33422;BME280;19763;55.798;37.782;2023-08-07T03:15:00;38032.88;;;-145.63;46.02
33422;BME280;19763;55.798;37.782;2023-08-07T03:17:26;38025.06;;;-145.63;46.12
33422;BME280;19763;55.798;37.782;2023-08-07T03:19:51;38042.66;;;-145.63;45.59
33422;BME280;19763;55.798;37.782;2023-08-07T03:22:17;37984.00;;;-145.63;45.55
33422;BME280;19763;55.798;37.782;2023-08-07T03:24:49;38066.13;;;-145.63;45.81
33422;BME280;19763;55.798;37.782;2023-08-07T03:27:15;37999.66;;;-145.63;45.46
33422;BME280;19763;55.798;37.782;2023-08-07T03:29:41;37978.13;;;-145.63;45.62
33422;BME280;19763;55.798;37.782;2023-08-07T03:32:08;37960.53;;;-145.63;45.34
33422;BME280;19763;55.798;37.782;2023-08-07T03:34:33;37972.28;;;-145.63;45.48
33422;BME280;19763;55.798;37.782;2023-08-07T03:36:59;37948.81;;;-145.63;45.43
33422;BME280;19763;55.798;37.782;2023-08-07T03:39:25;37944.91;;;-145.63;45.00
33422;BME280;19763;55.798;37.782;2023-08-07T03:41:51;37946.84;;;-145.63;44.99
33422;BME280;19763;55.798;37.782;2023-08-07T03:44:17;37927.31;;;-145.63;45.17
33422;BME280;19763;55.798;37.782;2023-08-07T03:46:42;37929.25;;;-145.63;44.63
33422;BME280;19763;55.798;37.782;2023-08-07T03:49:08;37905.81;;;-145.63;44.77
33422;BME280;19763;55.798;37.782;2023-08-07T03:51:34;37890.16;;;-145.63;44.46
33422;BME280;19763;55.798;37.782;2023-08-07T03:53:59;37878.44;;;-145.63;44.76
33422;BME280;19763;55.798;37.782;2023-08-07T03:56:25;37892.13;;;-145.63;44.00
33422;BME280;19763;55.798;37.782;2023-08-07T03:58:50;37847.16;;;-145.63;43.86
33422;BME280;19763;55.798;37.782;2023-08-07T04:01:16;37847.16;;;-145.63;44.04
33422;BME280;19763;55.798;37.782;2023-08-07T04:03:42;37835.41;;;-145.63;43.54
33422;BME280;19763;55.798;37.782;2023-08-07T04:06:08;37847.16;;;-145.63;44.40
33422;BME280;19763;55.798;37.782;2023-08-07T04:08:33;37819.78;;;-145.63;43.64
33422;BME280;19763;55.798;37.782;2023-08-07T04:11:03;37827.59;;;-145.63;43.73
33422;BME280;19763;55.798;37.782;2023-08-07T04:13:30;37759.19;;;-145.63;43.60
33422;BME280;19763;55.798;37.782;2023-08-07T04:15:56;37849.09;;;-145.63;42.88
33422;BME280;19763;55.798;37.782;2023-08-07T04:18:22;37784.59;;;-145.63;42.63
33422;BME280;19763;55.798;37.782;2023-08-07T04:20:50;37749.41;;;-145.63;42.59
33422;BME280;19763;55.798;37.782;2023-08-07T04:23:15;37751.34;;;-145.63;42.35
33422;BME280;19763;55.798;37.782;2023-08-07T04:25:41;37725.94;;;-145.63;42.17
33422;BME280;19763;55.798;37.782;2023-08-07T04:28:07;37757.22;;;-145.63;42.67
33422;BME280;19763;55.798;37.782;2023-08-07T04:30:32;37788.50;;;-145.63;42.21
33422;BME280;19763;55.798;37.782;2023-08-07T04:32:58;37765.03;;;-145.63;42.75
33422;BME280;19763;55.798;37.782;2023-08-07T04:35:23;37739.63;;;-145.63;41.80
33422;BME280;19763;55.798;37.782;2023-08-07T04:37:49;37706.38;;;-145.63;41.79
33422;BME280;19763;55.798;37.782;2023-08-07T04:40:15;37765.03;;;-145.63;41.22
33422;BME280;19763;55.798;37.782;2023-08-07T04:42:40;37784.59;;;-145.63;41.40
33422;BME280;19763;55.798;37.782;2023-08-07T04:45:06;37718.13;;;-145.63;41.29
33422;BME280;19763;55.798;37.782;2023-08-07T04:47:32;37737.66;;;-145.63;41.15
33422;BME280;19763;55.798;37.782;2023-08-07T04:49:58;37702.47;;;-145.63;40.93
33422;BME280;19763;55.798;37.782;2023-08-07T04:52:23;37671.19;;;-145.63;40.74
33422;BME280;19763;55.798;37.782;2023-08-07T04:54:49;37637.97;;;-145.63;40.85
33422;BME280;19763;55.798;37.782;2023-08-07T04:57:15;37667.28;;;-145.63;41.49
33422;BME280;19763;55.798;37.782;2023-08-07T04:59:40;37594.97;;;-145.63;39.98
33422;BME280;19763;55.798;37.782;2023-08-07T05:02:06;37514.81;;;-145.63;39.82
33422;BME280;19763;55.798;37.782;2023-08-07T05:04:31;37487.44;;;-145.63;39.07
33422;BME280;19763;55.798;37.782;2023-08-07T05:06:57;37483.53;;;-145.63;39.47
33422;BME280;19763;55.798;37.782;2023-08-07T05:09:23;37467.91;;;-145.63;39.30
33422;BME280;19763;55.798;37.782;2023-08-07T05:11:48;37393.59;;;-145.63;39.02
33422;BME280;19763;55.798;37.782;2023-08-07T05:14:14;37385.78;;;-145.63;38.49
33422;BME280;19763;55.798;37.782;2023-08-07T05:16:39;37368.19;;;-145.63;38.47
33422;BME280;19763;55.798;37.782;2023-08-07T05:19:05;37323.25;;;-145.63;37.95
33422;BME280;19763;55.798;37.782;2023-08-07T05:21:31;37266.56;;;-145.63;38.48
33422;BME280;19763;55.798;37.782;2023-08-07T05:23:56;37202.03;;;-145.63;38.92
33422;BME280;19763;55.798;37.782;2023-08-07T05:26:22;37237.22;;;-145.63;36.65
33422;BME280;19763;55.798;37.782;2023-08-07T05:28:48;37297.81;;;-145.63;37.23
33422;BME280;19763;55.798;37.782;2023-08-07T05:31:13;37233.31;;;-145.63;36.54
33422;BME280;19763;55.798;37.782;2023-08-07T05:33:39;37248.97;;;-145.63;37.38
33422;BME280;19763;55.798;37.782;2023-08-07T05:36:05;37159.03;;;-145.63;36.83
33422;BME280;19763;55.798;37.782;2023-08-07T05:38:31;37245.06;;;-145.63;35.96
33422;BME280;19763;55.798;37.782;2023-08-07T05:40:57;37381.88;;;-145.63;36.45
33422;BME280;19763;55.798;37.782;2023-08-07T05:43:23;37194.22;;;-145.63;36.83
33422;BME280;19763;55.798;37.782;2023-08-07T05:45:49;37192.28;;;-145.63;36.37
33422;BME280;19763;55.798;37.782;2023-08-07T05:48:15;37157.09;;;-145.63;36.46
33422;BME280;19763;55.798;37.782;2023-08-07T05:50:42;37143.41;;;-145.63;35.51
33422;BME280;19763;55.798;37.782;2023-08-07T05:53:08;37069.13;;;-145.63;35.53
33422;BME280;19763;55.798;37.782;2023-08-07T05:55:34;37166.84;;;-145.63;35.63
33422;BME280;19763;55.798;37.782;2023-08-07T05:57:59;37192.28;;;-145.63;35.59
33422;BME280;19763;55.798;37.782;2023-08-07T06:00:25;37213.78;;;-145.63;36.02
33422;BME280;19763;55.798;37.782;2023-08-07T06:02:51;37194.22;;;-145.63;36.00
33422;BME280;19763;55.798;37.782;2023-08-07T06:05:16;37192.28;;;-145.63;35.80
33422;BME280;19763;55.798;37.782;2023-08-07T06:07:42;37159.03;;;-145.63;35.93
33422;BME280;19763;55.798;37.782;2023-08-07T06:10:08;37162.94;;;-145.63;35.60
33422;BME280;19763;55.798;37.782;2023-08-07T06:12:34;37227.47;;;-145.63;35.59
33422;BME280;19763;55.798;37.782;2023-08-07T06:15:00;37121.91;;;-145.63;35.10
33422;BME280;19763;55.798;37.782;2023-08-07T06:17:26;37125.81;;;-145.63;35.46
33422;BME280;19763;55.798;37.782;2023-08-07T06:19:52;37096.50;;;-145.63;35.59
33422;BME280;19763;55.798;37.782;2023-08-07T06:22:17;37033.94;;;-145.63;35.08
33422;BME280;19763;55.798;37.782;2023-08-07T06:24:43;37030.03;;;-145.63;36.33
33422;BME280;19763;55.798;37.782;2023-08-07T06:27:09;37080.84;;;-145.63;35.19
33422;BME280;19763;55.798;37.782;2023-08-07T06:29:34;36975.31;;;-145.63;35.16
33422;BME280;19763;55.798;37.782;2023-08-07T06:32:00;36946.00;;;-145.63;34.45
33422;BME280;19763;55.798;37.782;2023-08-07T06:34:25;36936.22;;;-145.63;34.88
33422;BME280;19763;55.798;37.782;2023-08-07T06:36:51;36936.22;;;-145.63;34.20
33422;BME280;19763;55.798;37.782;2023-08-07T06:39:17;36942.06;;;-145.63;34.49
33422;BME280;19763;55.798;37.782;2023-08-07T06:41:43;36987.03;;;-145.63;33.67
33422;BME280;19763;55.798;37.782;2023-08-07T06:44:08;36928.41;;;-145.63;33.38
33422;BME280;19763;55.798;37.782;2023-08-07T06:46:34;36969.44;;;-145.63;33.68
33422;BME280;19763;55.798;37.782;2023-08-07T06:48:59;36969.44;;;-145.63;33.79
33422;BME280;19763;55.798;37.782;2023-08-07T06:51:25;36895.16;;;-145.63;33.90
33422;BME280;19763;55.798;37.782;2023-08-07T06:53:51;36897.13;;;-145.63;33.51
33422;BME280;19763;55.798;37.782;2023-08-07T06:56:16;36940.13;;;-145.63;32.89
33422;BME280;19763;55.798;37.782;2023-08-07T06:58:42;36873.66;;;-145.63;33.06
33422;BME280;19763;55.798;37.782;2023-08-07T07:01:07;36858.03;;;-145.63;32.70
33422;BME280;19763;55.798;37.782;2023-08-07T07:03:33;36989.00;;;-145.63;32.51
33422;BME280;19763;55.798;37.782;2023-08-07T07:05:59;36971.41;;;-145.63;32.39
33422;BME280;19763;55.798;37.782;2023-08-07T07:08:24;36983.13;;;-145.63;32.59
33422;BME280;19763;55.798;37.782;2023-08-07T07:10:50;36938.16;;;-145.63;32.50
33422;BME280;19763;55.798;37.782;2023-08-07T07:13:16;36830.66;;;-145.63;32.93
33422;BME280;19763;55.798;37.782;2023-08-07T07:15:41;36848.25;;;-145.63;32.30
33422;BME280;19763;55.798;37.782;2023-08-07T07:18:07;36850.22;;;-145.63;32.34
33422;BME280;19763;55.798;37.782;2023-08-07T07:20:32;36809.16;;;-145.63;32.25
33422;BME280;19763;55.798;37.782;2023-08-07T07:22:58;36768.13;;;-145.63;32.53
33422;BME280;19763;55.798;37.782;2023-08-07T07:25:24;36775.94;;;-145.63;31.69
33422;BME280;19763;55.798;37.782;2023-08-07T07:27:49;36822.84;;;-145.63;31.85
33422;BME280;19763;55.798;37.782;2023-08-07T07:30:15;36793.53;;;-145.63;31.61
33422;BME280;19763;55.798;37.782;2023-08-07T07:32:41;36795.50;;;-145.63;31.59
33422;BME280;19763;55.798;37.782;2023-08-07T07:35:06;36881.50;;;-145.63;31.33
33422;BME280;19763;55.798;37.782;2023-08-07T07:37:33;36854.13;;;-145.63;31.07
33422;BME280;19763;55.798;37.782;2023-08-07T07:39:59;36926.44;;;-145.63;31.41
33422;BME280;19763;55.798;37.782;2023-08-07T07:42:25;36891.25;;;-145.63;31.33
33422;BME280;19763;55.798;37.782;2023-08-07T07:44:51;36838.50;;;-145.63;31.74
33422;BME280;19763;55.798;37.782;2023-08-07T07:47:16;36750.53;;;-145.63;31.25
33422;BME280;19763;55.798;37.782;2023-08-07T07:49:46;36306.91;;;-145.63;31.25
33422;BME280;19763;55.798;37.782;2023-08-07T07:52:15;36689.94;;;-145.63;31.33
33422;BME280;19763;55.798;37.782;2023-08-07T07:54:41;36748.59;;;-145.63;30.72
33422;BME280;19763;55.798;37.782;2023-08-07T07:57:06;36803.31;;;-145.63;30.50
33422;BME280;19763;55.798;37.782;2023-08-07T07:59:32;36803.31;;;-145.63;30.75
33422;BME280;19763;55.798;37.782;2023-08-07T08:01:58;36725.13;;;-145.63;30.83
33422;BME280;19763;55.798;37.782;2023-08-07T08:04:23;36678.22;;;-145.63;30.97
33422;BME280;19763;55.798;37.782;2023-08-07T08:06:49;36660.63;;;-145.63;30.35
33422;BME280;19763;55.798;37.782;2023-08-07T08:09:14;36807.22;;;-145.63;30.14
33422;BME280;19763;55.798;37.782;2023-08-07T08:11:41;36721.22;;;-145.63;30.10
33422;BME280;19763;55.798;37.782;2023-08-07T08:14:06;36656.72;;;-145.63;30.35
33422;BME280;19763;55.798;37.782;2023-08-07T08:16:32;36578.53;;;-145.63;30.16
33422;BME280;19763;55.798;37.782;2023-08-07T08:18:57;36688.00;;;-145.63;29.63
33422;BME280;19763;55.798;37.782;2023-08-07T08:21:23;36590.28;;;-145.63;30.04
33422;BME280;19763;55.798;37.782;2023-08-07T08:23:49;36570.72;;;-145.63;30.33
33422;BME280;19763;55.798;37.782;2023-08-07T08:26:14;36543.38;;;-145.63;29.78
33422;BME280;19763;55.798;37.782;2023-08-07T08:28:40;36586.38;;;-145.63;30.70
33422;BME280;19763;55.798;37.782;2023-08-07T08:31:06;36490.59;;;-145.63;30.01
33422;BME280;19763;55.798;37.782;2023-08-07T08:33:31;36619.59;;;-145.63;29.69
33422;BME280;19763;55.798;37.782;2023-08-07T08:35:57;36547.28;;;-145.63;29.64
33422;BME280;19763;55.798;37.782;2023-08-07T08:38:23;36529.69;;;-145.63;29.29
33422;BME280;19763;55.798;37.782;2023-08-07T08:40:51;36463.25;;;-145.63;29.69
33422;BME280;19763;55.798;37.782;2023-08-07T08:43:17;36482.78;;;-145.63;29.80
33422;BME280;19763;55.798;37.782;2023-08-07T08:45:43;36459.31;;;-145.63;29.90
33422;BME280;19763;55.798;37.782;2023-08-07T08:48:13;36566.81;;;-145.63;29.07
33422;BME280;19763;55.798;37.782;2023-08-07T08:50:43;36431.97;;;-145.63;29.56
33422;BME280;19763;55.798;37.782;2023-08-07T08:53:09;36437.84;;;-145.63;29.37
33422;BME280;19763;55.798;37.782;2023-08-07T08:55:36;36365.53;;;-145.63;29.22
33422;BME280;19763;55.798;37.782;2023-08-07T08:58:02;36297.13;;;-145.63;28.99
33422;BME280;19763;55.798;37.782;2023-08-07T09:00:29;36318.63;;;-145.63;28.82
33422;BME280;19763;55.798;37.782;2023-08-07T09:02:55;36345.97;;;-145.63;28.13
33422;BME280;19763;55.798;37.782;2023-08-07T09:05:21;36404.59;;;-145.63;28.59
33422;BME280;19763;55.798;37.782;2023-08-07T09:07:48;36345.97;;;-145.63;28.77
33422;BME280;19763;55.798;37.782;2023-08-07T09:10:15;36379.19;;;-145.63;28.60
33422;BME280;19763;55.798;37.782;2023-08-07T09:12:49;36344.03;;;-145.63;28.61
33422;BME280;19763;55.798;37.782;2023-08-07T09:15:18;36142.75;;;-145.63;29.52
33422;BME280;19763;55.798;37.782;2023-08-07T09:17:45;36148.59;;;-145.63;28.11
33422;BME280;19763;55.798;37.782;2023-08-07T09:20:11;36058.72;;;-145.63;27.71
33422;BME280;19763;55.798;37.782;2023-08-07T09:22:42;36201.38;;;-145.63;27.43
33422;BME280;19763;55.798;37.782;2023-08-07T09:25:08;36146.66;;;-145.63;27.10
33422;BME280;19763;55.798;37.782;2023-08-07T09:27:37;36162.28;;;-145.63;26.84
33422;BME280;19763;55.798;37.782;2023-08-07T09:30:05;36072.38;;;-145.63;26.85
33422;BME280;19763;55.798;37.782;2023-08-07T09:32:32;36015.72;;;-145.63;26.60
33422;BME280;19763;55.798;37.782;2023-08-07T09:34:57;36166.19;;;-145.63;27.26
33422;BME280;19763;55.798;37.782;2023-08-07T09:37:23;36115.38;;;-145.63;27.72
33422;BME280;19763;55.798;37.782;2023-08-07T09:39:49;36029.41;;;-145.63;27.10
33422;BME280;19763;55.798;37.782;2023-08-07T09:42:17;36017.69;;;-145.63;27.84
33422;BME280;19763;55.798;37.782;2023-08-07T09:44:43;36172.06;;;-145.63;27.30
33422;BME280;19763;55.798;37.782;2023-08-07T09:47:16;36302.97;;;-145.63;27.73
33422;BME280;19763;55.798;37.782;2023-08-07T09:49:44;36164.22;;;-145.63;27.42
33422;BME280;19763;55.798;37.782;2023-08-07T09:52:11;36320.56;;;-145.63;27.30
33422;BME280;19763;55.798;37.782;2023-08-07T09:54:39;36242.41;;;-145.63;27.17
33422;BME280;19763;55.798;37.782;2023-08-07T09:57:05;36168.16;;;-145.63;27.68
33422;BME280;19763;55.798;37.782;2023-08-07T09:59:35;36238.50;;;-145.63;27.83
33422;BME280;19763;55.798;37.782;2023-08-07T10:02:02;36267.81;;;-145.63;27.69
33422;BME280;19763;55.798;37.782;2023-08-07T10:04:29;36260.00;;;-145.63;27.83
33422;BME280;19763;55.798;37.782;2023-08-07T10:06:56;36232.63;;;-145.63;27.66
33422;BME280;19763;55.798;37.782;2023-08-07T10:09:22;36357.72;;;-145.63;27.58
33422;BME280;19763;55.798;37.782;2023-08-07T10:11:51;36338.16;;;-145.63;27.34
33422;BME280;19763;55.798;37.782;2023-08-07T10:14:18;36318.63;;;-145.63;27.45
33422;BME280;19763;55.798;37.782;2023-08-07T10:16:45;36338.16;;;-145.63;27.55
33422;BME280;19763;55.798;37.782;2023-08-07T10:19:11;36260.00;;;-145.63;27.48
33422;BME280;19763;55.798;37.782;2023-08-07T10:21:40;36164.22;;;-145.63;27.45
33422;BME280;19763;55.798;37.782;2023-08-07T10:24:08;36218.94;;;-145.63;27.39
33422;BME280;19763;55.798;37.782;2023-08-07T10:26:38;36283.44;;;-145.63;26.80
33422;BME280;19763;55.798;37.782;2023-08-07T10:29:09;36334.25;;;-145.63;26.80
33422;BME280;19763;55.798;37.782;2023-08-07T10:31:36;36232.63;;;-145.63;27.38
33422;BME280;19763;55.798;37.782;2023-08-07T10:34:02;36132.97;;;-145.63;27.25
33422;BME280;19763;55.798;37.782;2023-08-07T10:36:35;36138.84;;;-145.63;27.03
33422;BME280;19763;55.798;37.782;2023-08-07T10:39:09;36138.84;;;-145.63;26.20
33422;BME280;19763;55.798;37.782;2023-08-07T10:41:40;36193.56;;;-145.63;26.75
33422;BME280;19763;55.798;37.782;2023-08-07T10:46:52;36140.78;;;-145.63;26.42
33422;BME280;19763;55.798;37.782;2023-08-07T10:49:31;36125.16;;;-145.63;26.58
33422;BME280;19763;55.798;37.782;2023-08-07T10:51:58;36093.88;;;-145.63;26.28
33422;BME280;19763;55.798;37.782;2023-08-07T10:54:24;36156.41;;;-145.63;26.70
33422;BME280;19763;55.798;37.782;2023-08-07T10:56:54;36101.69;;;-145.63;26.53
33422;BME280;19763;55.798;37.782;2023-08-07T10:59:20;36004.00;;;-145.63;26.67
33422;BME280;19763;55.798;37.782;2023-08-07T11:01:54;36043.06;;;-145.63;26.42
33422;BME280;19763;55.798;37.782;2023-08-07T11:04:22;35570.22;;;-145.63;26.16
33422;BME280;19763;55.798;37.782;2023-08-07T11:06:50;36078.25;;;-145.63;26.05
33422;BME280;19763;55.798;37.782;2023-08-07T11:09:16;36078.25;;;-145.63;26.57
33422;BME280;19763;55.798;37.782;2023-08-07T11:11:42;36076.31;;;-145.63;26.56
33422;BME280;19763;55.798;37.782;2023-08-07T11:14:10;36072.38;;;-145.63;25.95
33422;BME280;19763;55.798;37.782;2023-08-07T11:16:36;36142.75;;;-145.63;26.43
33422;BME280;19763;55.798;37.782;2023-08-07T11:19:03;36125.16;;;-145.63;26.63
33422;BME280;19763;55.798;37.782;2023-08-07T11:21:33;36144.69;;;-145.63;26.58
33422;BME280;19763;55.798;37.782;2023-08-07T11:23:59;36111.47;;;-145.63;26.07
33422;BME280;19763;55.798;37.782;2023-08-07T11:26:25;36162.28;;;-145.63;26.14
33422;BME280;19763;55.798;37.782;2023-08-07T11:28:52;36230.69;;;-145.63;26.22
33422;BME280;19763;55.798;37.782;2023-08-07T11:31:21;36111.47;;;-145.63;26.16
33422;BME280;19763;55.798;37.782;2023-08-07T11:33:52;36138.84;;;-145.63;26.38
33422;BME280;19763;55.798;37.782;2023-08-07T11:36:18;36119.28;;;-145.63;26.50
33422;BME280;19763;55.798;37.782;2023-08-07T11:38:44;36166.19;;;-145.63;26.90
33422;BME280;19763;55.798;37.782;2023-08-07T11:41:12;36103.66;;;-145.63;27.13
33422;BME280;19763;55.798;37.782;2023-08-07T11:43:40;36131.00;;;-145.63;26.78
33422;BME280;19763;55.798;37.782;2023-08-07T11:46:07;36088.03;;;-145.63;27.13
33422;BME280;19763;55.798;37.782;2023-08-07T11:48:35;36111.47;;;-145.63;26.68
33422;BME280;19763;55.798;37.782;2023-08-07T11:51:02;35986.41;;;-145.63;27.15
33422;BME280;19763;55.798;37.782;2023-08-07T11:53:30;36002.03;;;-145.63;26.80
33422;BME280;19763;55.798;37.782;2023-08-07T11:56:05;36011.81;;;-145.63;26.73
33422;BME280;19763;55.798;37.782;2023-08-07T11:58:39;36015.72;;;-145.63;26.70
33422;BME280;19763;55.798;37.782;2023-08-07T12:01:15;36004.00;;;-145.63;27.55
33422;BME280;19763;55.798;37.782;2023-08-07T12:03:50;35982.50;;;-145.63;26.17
33422;BME280;19763;55.798;37.782;2023-08-07T12:06:16;36039.16;;;-145.63;26.43
33422;BME280;19763;55.798;37.782;2023-08-07T12:08:42;36054.81;;;-145.63;26.69
33422;BME280;19763;55.798;37.782;2023-08-07T12:11:12;36041.13;;;-145.63;26.46
33422;BME280;19763;55.798;37.782;2023-08-07T12:13:43;36027.44;;;-145.63;26.65
33422;BME280;19763;55.798;37.782;2023-08-07T12:16:11;36005.94;;;-145.63;26.95
33422;BME280;19763;55.798;37.782;2023-08-07T12:18:48;36093.88;;;-145.63;26.96
33422;BME280;19763;55.798;37.782;2023-08-07T12:21:16;36162.28;;;-145.63;26.93
33422;BME280;19763;55.798;37.782;2023-08-07T12:23:43;36033.31;;;-145.63;27.08
33422;BME280;19763;55.798;37.782;2023-08-07T12:26:09;35957.09;;;-145.63;26.57
33422;BME280;19763;55.798;37.782;2023-08-07T12:28:35;35968.81;;;-145.63;26.83
33422;BME280;19763;55.798;37.782;2023-08-07T12:31:01;35962.97;;;-145.63;26.51
33422;BME280;19763;55.798;37.782;2023-08-07T12:33:29;36021.59;;;-145.63;26.77
33422;BME280;19763;55.798;37.782;2023-08-07T12:35:55;36052.84;;;-145.63;26.65
33422;BME280;19763;55.798;37.782;2023-08-07T12:38:21;35972.72;;;-145.63;26.66